Nearby METAR Reports

 

KDEN - Denver, Colorado, USA
Distance from station: NE 9mi, 14km
Updated: Fri, 17-Aug-2018 4:53pm MDT
Mostly cloudy
Mostly cloudy
 Wind from SSE
Wind: SSE 14 mph , 22 km/h
Temperature: 82°F , 28°C
Heat Index: 81°F , 27°C
Dew Point: 55°F , 13°C
Humidity: 40%
Barometer: 30.20 inHg , 1022.7 hPa
Clouds: Mostly cloudy
Visibility: 10 miles , 16 km
Cloud details: Mostly cloudy 8000 ft
Mostly cloudy 15000 ft
Mostly cloudy 22000 ft
2018/08/17 22:53 KDEN 172253Z 15012KT 10SM BKN080 BKN150 BKN220 28/13 A3020 RMK AO2 PK WND 17027/2200 LTG DSNT NE AND E SLP145 T02780133
KAPA - Centennial Airport, Colorado, USA
Distance from station: N 9mi, 14km
Updated: Fri, 17-Aug-2018 4:53pm MDT
Mostly cloudy
Mostly cloudy
 Wind from S
Wind: S 10 mph , 17 km/h
Temperature: 81°F , 27°C
Dew Point: 54°F , 12°C
Humidity: 39%
Barometer: 30.23 inHg , 1023.7 hPa
Clouds: Mostly cloudy
Visibility: 10 miles , 16 km
Cloud details: Few Clouds 9000 ft
Partly cloudy 13000 ft
Mostly cloudy 22000 ft
2018/08/17 22:53 KAPA 172253Z 19009KT 10SM FEW090 SCT130 BKN220 27/12 A3023 RMK AO2 SLP165 T02670117
 
KBJC - Broomfield Airport, Colorado, USA
Distance from station: NNW 14mi, 23km
Updated: Fri, 17-Aug-2018 4:45pm MDT
Mostly cloudy
Mostly cloudy
 Wind from NW
Wind: NW 7 mph , 11 km/h
Temperature: 86°F , 30°C
Dew Point: 48°F , 9°C
Humidity: 27%
Barometer: 30.22 inHg , 1023.4 hPa
Clouds: Mostly cloudy
Visibility: 15 miles , 24 km
Cloud details: Mostly cloudy 15000 ft
2018/08/17 22:45 KBJC 172245Z COR 32006KT 15SM BKN150 30/09 A3022